EDW2A EDDK-EDDF
Flight info
| Callsign | EDW2A |
|---|---|
| Flight time | 0h 26m |
| Altitude | 15000 |
| Route | COL4B COL T911 ROLIS ROLIS5A |
| Aircraft | A320/M-SDE3FGHIRWY/LB1 |
Departure
| Time | 2026-05-06 19:59 |
|---|---|
| Airport | Cologne Bonn Airport (EDDK) |
Arrival
| Time | 2026-05-06 20:26 |
|---|---|
| Airport | Frankfurt Main Airport (EDDF) |
| Time | Latitude | Longitude | Altitude | Speed | Heading |
|---|---|---|---|---|---|
| 2026-05-06 19:37 | 50.87696 | 7.12386 | 232 ft | 0 kts | 288° |
| 2026-05-06 19:42 | 50.87689 | 7.12418 | 233 ft | 4 kts | 292° |
| 2026-05-06 19:42 | 50.87678 | 7.12456 | 235 ft | 4 kts | 303° |
| 2026-05-06 19:43 | 50.87661 | 7.12485 | 235 ft | 4 kts | 339° |
| 2026-05-06 19:43 | 50.87648 | 7.12489 | 235 ft | 1 kts | 18° |
| 2026-05-06 19:44 | 50.87649 | 7.12490 | 235 ft | 2 kts | 18° |
| 2026-05-06 19:45 | 50.87690 | 7.12511 | 232 ft | 10 kts | 18° |
| 2026-05-06 19:45 | 50.87763 | 7.12596 | 232 ft | 17 kts | 70° |
| 2026-05-06 19:45 | 50.87723 | 7.12764 | 232 ft | 17 kts | 137° |
| 2026-05-06 19:45 | 50.87643 | 7.12881 | 232 ft | 15 kts | 137° |
| 2026-05-06 19:46 | 50.87567 | 7.12990 | 232 ft | 16 kts | 137° |
| 2026-05-06 19:46 | 50.87477 | 7.13121 | 232 ft | 20 kts | 138° |
| 2026-05-06 19:46 | 50.87383 | 7.13259 | 232 ft | 17 kts | 137° |
| 2026-05-06 19:46 | 50.87297 | 7.13382 | 232 ft | 17 kts | 139° |
| 2026-05-06 19:47 | 50.87189 | 7.13537 | 236 ft | 25 kts | 136° |
| 2026-05-06 19:47 | 50.87067 | 7.13716 | 241 ft | 22 kts | 137° |
| 2026-05-06 19:47 | 50.86958 | 7.13873 | 247 ft | 19 kts | 137° |
| 2026-05-06 19:47 | 50.86888 | 7.13973 | 253 ft | 9 kts | 136° |
| 2026-05-06 19:48 | 50.86856 | 7.14020 | 255 ft | 5 kts | 137° |
| 2026-05-06 19:48 | 50.86839 | 7.14045 | 255 ft | 4 kts | 137° |
| 2026-05-06 19:48 | 50.86822 | 7.14070 | 255 ft | 3 kts | 137° |
| 2026-05-06 19:48 | 50.86810 | 7.14088 | 255 ft | 2 kts | 137° |
| 2026-05-06 19:49 | 50.86804 | 7.14096 | 255 ft | 0 kts | 137° |
| 2026-05-06 19:49 | 50.86800 | 7.14102 | 255 ft | 4 kts | 138° |
| 2026-05-06 19:50 | 50.86762 | 7.14128 | 255 ft | 7 kts | 171° |
| 2026-05-06 19:50 | 50.86703 | 7.14181 | 258 ft | 12 kts | 135° |
| 2026-05-06 19:50 | 50.86634 | 7.14281 | 261 ft | 16 kts | 137° |
| 2026-05-06 19:50 | 50.86536 | 7.14423 | 263 ft | 21 kts | 138° |
| 2026-05-06 19:51 | 50.86444 | 7.14558 | 269 ft | 15 kts | 138° |
| 2026-05-06 19:51 | 50.86375 | 7.14656 | 273 ft | 14 kts | 137° |
| 2026-05-06 19:51 | 50.86285 | 7.14786 | 279 ft | 22 kts | 138° |
| 2026-05-06 19:51 | 50.86165 | 7.14962 | 285 ft | 23 kts | 137° |
| 2026-05-06 19:52 | 50.86056 | 7.15118 | 292 ft | 20 kts | 137° |
| 2026-05-06 19:52 | 50.85956 | 7.15265 | 295 ft | 20 kts | 138° |
| 2026-05-06 19:52 | 50.85850 | 7.15416 | 299 ft | 20 kts | 138° |
| 2026-05-06 19:52 | 50.85761 | 7.15546 | 299 ft | 16 kts | 138° |
| 2026-05-06 19:53 | 50.85683 | 7.15657 | 304 ft | 18 kts | 139° |
| 2026-05-06 19:53 | 50.85589 | 7.15794 | 305 ft | 17 kts | 137° |
| 2026-05-06 19:53 | 50.85512 | 7.15906 | 307 ft | 13 kts | 137° |
| 2026-05-06 19:53 | 50.85450 | 7.15995 | 308 ft | 11 kts | 137° |
| 2026-05-06 19:54 | 50.85396 | 7.16073 | 308 ft | 10 kts | 137° |
| 2026-05-06 19:54 | 50.85356 | 7.16148 | 308 ft | 8 kts | 122° |
| 2026-05-06 19:54 | 50.85337 | 7.16249 | 308 ft | 12 kts | 96° |
| 2026-05-06 19:54 | 50.85341 | 7.16349 | 308 ft | 6 kts | 71° |
| 2026-05-06 19:55 | 50.85360 | 7.16404 | 309 ft | 5 kts | 56° |
| 2026-05-06 19:55 | 50.85372 | 7.16429 | 310 ft | 0 kts | 50° |
| 2026-05-06 19:56 | 50.85376 | 7.16436 | 308 ft | 3 kts | 49° |
| 2026-05-06 19:56 | 50.85381 | 7.16445 | 308 ft | 0 kts | 48° |
| 2026-05-06 19:57 | 50.85393 | 7.16464 | 287 ft | 9 kts | 44° |
| 2026-05-06 19:57 | 50.85451 | 7.16511 | 308 ft | 9 kts | 18° |
| 2026-05-06 19:57 | 50.85524 | 7.16519 | 309 ft | 12 kts | 356° |
| 2026-05-06 19:58 | 50.85585 | 7.16476 | 308 ft | 0 kts | 316° |
| 2026-05-06 19:58 | 50.85632 | 7.16408 | 308 ft | 35 kts | 317° |
| 2026-05-06 19:59 | 50.85995 | 7.15883 | 299 ft | 103 kts | 317° |
| 2026-05-06 19:59 | 50.86661 | 7.14916 | 278 ft | 154 kts | 317° |
| 2026-05-06 19:59 | 50.87439 | 7.13837 | 863 ft | 149 kts | 318° |
| 2026-05-06 19:59 | 50.88210 | 7.12716 | 1461 ft | 153 kts | 319° |
| 2026-05-06 20:00 | 50.89061 | 7.11540 | 1803 ft | 174 kts | 329° |
| 2026-05-06 20:00 | 50.90299 | 7.11095 | 2098 ft | 197 kts | 7° |
| 2026-05-06 20:00 | 50.91593 | 7.11958 | 2725 ft | 207 kts | 30° |
| 2026-05-06 20:00 | 50.92823 | 7.13172 | 3505 ft | 211 kts | 36° |
| 2026-05-06 20:01 | 50.93834 | 7.14919 | 4139 ft | 226 kts | 57° |
| 2026-05-06 20:01 | 50.94590 | 7.17255 | 4523 ft | 250 kts | 61° |
| 2026-05-06 20:01 | 50.95388 | 7.19805 | 5160 ft | 263 kts | 61° |
| 2026-05-06 20:01 | 50.96162 | 7.22280 | 5972 ft | 267 kts | 61° |
| 2026-05-06 20:02 | 50.96992 | 7.24931 | 6821 ft | 270 kts | 61° |
| 2026-05-06 20:02 | 50.97743 | 7.27678 | 7673 ft | 275 kts | 73° |
| 2026-05-06 20:02 | 50.97841 | 7.30740 | 8522 ft | 284 kts | 97° |
| 2026-05-06 20:02 | 50.97101 | 7.33698 | 9364 ft | 294 kts | 122° |
| 2026-05-06 20:03 | 50.95660 | 7.36032 | 10140 ft | 303 kts | 137° |
| 2026-05-06 20:03 | 50.94005 | 7.38280 | 10433 ft | 325 kts | 137° |
| 2026-05-06 20:03 | 50.92219 | 7.40696 | 10633 ft | 349 kts | 137° |
| 2026-05-06 20:03 | 50.90316 | 7.43264 | 10862 ft | 369 kts | 137° |
| 2026-05-06 20:04 | 50.88349 | 7.45917 | 11440 ft | 375 kts | 138° |
| 2026-05-06 20:04 | 50.86377 | 7.48576 | 12125 ft | 379 kts | 138° |
| 2026-05-06 20:04 | 50.84359 | 7.51293 | 12817 ft | 382 kts | 139° |
| 2026-05-06 20:04 | 50.82325 | 7.54038 | 13531 ft | 385 kts | 140° |
| 2026-05-06 20:05 | 50.80286 | 7.56792 | 14193 ft | 387 kts | 141° |
| 2026-05-06 20:05 | 50.78115 | 7.59331 | 14687 ft | 389 kts | 149° |
| 2026-05-06 20:05 | 50.75699 | 7.61246 | 14843 ft | 389 kts | 158° |
| 2026-05-06 20:05 | 50.73145 | 7.62939 | 14880 ft | 408 kts | 158° |
| 2026-05-06 20:06 | 50.70481 | 7.64693 | 14881 ft | 420 kts | 159° |
| 2026-05-06 20:06 | 50.67773 | 7.66476 | 14879 ft | 422 kts | 158° |
| 2026-05-06 20:06 | 50.65062 | 7.68269 | 14872 ft | 423 kts | 158° |
| 2026-05-06 20:06 | 50.62385 | 7.70041 | 14876 ft | 423 kts | 158° |
| 2026-05-06 20:07 | 50.59683 | 7.71832 | 14873 ft | 418 kts | 159° |
| 2026-05-06 20:07 | 50.57062 | 7.73573 | 14776 ft | 401 kts | 159° |
| 2026-05-06 20:07 | 50.54542 | 7.75249 | 14651 ft | 385 kts | 159° |
| 2026-05-06 20:07 | 50.52118 | 7.76859 | 14429 ft | 374 kts | 159° |
| 2026-05-06 20:08 | 50.49739 | 7.78434 | 13921 ft | 367 kts | 159° |
| 2026-05-06 20:08 | 50.47379 | 7.79987 | 13362 ft | 367 kts | 159° |
| 2026-05-06 20:08 | 50.45070 | 7.81506 | 12828 ft | 364 kts | 159° |
| 2026-05-06 20:08 | 50.42847 | 7.83391 | 12304 ft | 363 kts | 147° |
| 2026-05-06 20:09 | 50.40852 | 7.85792 | 11761 ft | 362 kts | 143° |
| 2026-05-06 20:09 | 50.38882 | 7.88242 | 11243 ft | 359 kts | 143° |
| 2026-05-06 20:09 | 50.36948 | 7.90652 | 10823 ft | 353 kts | 143° |
| 2026-05-06 20:09 | 50.35055 | 7.93007 | 10649 ft | 340 kts | 144° |
| 2026-05-06 20:10 | 50.33242 | 7.95256 | 10507 ft | 327 kts | 144° |
| 2026-05-06 20:10 | 50.31491 | 7.97422 | 10391 ft | 315 kts | 144° |
| 2026-05-06 20:10 | 50.29805 | 7.99507 | 10273 ft | 303 kts | 144° |
| 2026-05-06 20:10 | 50.28199 | 8.01486 | 10096 ft | 294 kts | 144° |
| 2026-05-06 20:11 | 50.26623 | 8.03497 | 9890 ft | 292 kts | 139° |
| 2026-05-06 20:11 | 50.25290 | 8.05920 | 9866 ft | 295 kts | 130° |
| 2026-05-06 20:11 | 50.24040 | 8.08458 | 9865 ft | 295 kts | 130° |
| 2026-05-06 20:11 | 50.22784 | 8.10998 | 9865 ft | 295 kts | 130° |
| 2026-05-06 20:12 | 50.21529 | 8.13540 | 9867 ft | 296 kts | 130° |
| 2026-05-06 20:12 | 50.20273 | 8.16084 | 9865 ft | 295 kts | 130° |
| 2026-05-06 20:12 | 50.19020 | 8.18627 | 9868 ft | 296 kts | 130° |
| 2026-05-06 20:12 | 50.17783 | 8.21131 | 9868 ft | 296 kts | 130° |
| 2026-05-06 20:13 | 50.16526 | 8.23673 | 9868 ft | 296 kts | 130° |
| 2026-05-06 20:13 | 50.15267 | 8.26210 | 9870 ft | 296 kts | 130° |
| 2026-05-06 20:13 | 50.14009 | 8.28743 | 9866 ft | 296 kts | 130° |
| 2026-05-06 20:13 | 50.12746 | 8.31280 | 9868 ft | 296 kts | 130° |
| 2026-05-06 20:14 | 50.11519 | 8.33850 | 9866 ft | 298 kts | 123° |
| 2026-05-06 20:14 | 50.10720 | 8.36839 | 9869 ft | 301 kts | 104° |
| 2026-05-06 20:14 | 50.10555 | 8.40045 | 9868 ft | 303 kts | 85° |
| 2026-05-06 20:14 | 50.11017 | 8.43223 | 9690 ft | 302 kts | 70° |
| 2026-05-06 20:15 | 50.11756 | 8.46284 | 9265 ft | 301 kts | 69° |
| 2026-05-06 20:15 | 50.12496 | 8.49324 | 8872 ft | 299 kts | 69° |
| 2026-05-06 20:15 | 50.13228 | 8.52353 | 8496 ft | 297 kts | 70° |
| 2026-05-06 20:15 | 50.13950 | 8.55357 | 8112 ft | 296 kts | 70° |
| 2026-05-06 20:16 | 50.14576 | 8.57973 | 7777 ft | 294 kts | 70° |
| 2026-05-06 20:16 | 50.15285 | 8.60953 | 7396 ft | 292 kts | 70° |
| 2026-05-06 20:16 | 50.15987 | 8.63916 | 7021 ft | 290 kts | 70° |
| 2026-05-06 20:16 | 50.16686 | 8.66853 | 6638 ft | 288 kts | 70° |
| 2026-05-06 20:17 | 50.17375 | 8.69744 | 6256 ft | 287 kts | 70° |
| 2026-05-06 20:17 | 50.18064 | 8.72645 | 5864 ft | 285 kts | 70° |
| 2026-05-06 20:17 | 50.18746 | 8.75528 | 5489 ft | 282 kts | 70° |
| 2026-05-06 20:17 | 50.19421 | 8.78387 | 5107 ft | 279 kts | 70° |
| 2026-05-06 20:18 | 50.20087 | 8.81213 | 4731 ft | 277 kts | 70° |
| 2026-05-06 20:18 | 50.20750 | 8.84025 | 4333 ft | 274 kts | 69° |
| 2026-05-06 20:18 | 50.21396 | 8.86805 | 4013 ft | 270 kts | 71° |
| 2026-05-06 20:18 | 50.21626 | 8.89716 | 3984 ft | 272 kts | 95° |
| 2026-05-06 20:19 | 50.21093 | 8.92527 | 3986 ft | 272 kts | 120° |
| 2026-05-06 20:19 | 50.19872 | 8.94735 | 3987 ft | 270 kts | 144° |
| 2026-05-06 20:19 | 50.18283 | 8.96057 | 3981 ft | 254 kts | 165° |
| 2026-05-06 20:19 | 50.16625 | 8.96468 | 3985 ft | 233 kts | 183° |
| 2026-05-06 20:20 | 50.15054 | 8.96093 | 3991 ft | 227 kts | 200° |
| 2026-05-06 20:20 | 50.13643 | 8.95032 | 3993 ft | 224 kts | 217° |
| 2026-05-06 20:20 | 50.12507 | 8.93402 | 3991 ft | 221 kts | 234° |
| 2026-05-06 20:20 | 50.11733 | 8.91350 | 3994 ft | 220 kts | 250° |
| 2026-05-06 20:21 | 50.11204 | 8.89115 | 3994 ft | 219 kts | 251° |
| 2026-05-06 20:21 | 50.10682 | 8.86881 | 3999 ft | 220 kts | 251° |
| 2026-05-06 20:21 | 50.10155 | 8.84640 | 3870 ft | 220 kts | 251° |
| 2026-05-06 20:21 | 50.09637 | 8.82440 | 3613 ft | 217 kts | 251° |
| 2026-05-06 20:22 | 50.09132 | 8.80303 | 3353 ft | 203 kts | 252° |
| 2026-05-06 20:22 | 50.08664 | 8.78318 | 3087 ft | 189 kts | 252° |
| 2026-05-06 20:22 | 50.08228 | 8.76475 | 2838 ft | 172 kts | 252° |
| 2026-05-06 20:22 | 50.07960 | 8.75343 | 2681 ft | 159 kts | 252° |
| 2026-05-06 20:23 | 50.07486 | 8.73338 | 2408 ft | 143 kts | 253° |
| 2026-05-06 20:23 | 50.07262 | 8.72385 | 2280 ft | 140 kts | 254° |
| 2026-05-06 20:23 | 50.06923 | 8.70976 | 2098 ft | 138 kts | 254° |
| 2026-05-06 20:23 | 50.06592 | 8.69580 | 1898 ft | 136 kts | 253° |
| 2026-05-06 20:24 | 50.06262 | 8.68213 | 1734 ft | 134 kts | 253° |
| 2026-05-06 20:24 | 50.05944 | 8.66843 | 1509 ft | 135 kts | 254° |
| 2026-05-06 20:24 | 50.05623 | 8.65475 | 1323 ft | 135 kts | 252° |
| 2026-05-06 20:24 | 50.05296 | 8.64102 | 1138 ft | 136 kts | 252° |
| 2026-05-06 20:25 | 50.04966 | 8.62719 | 955 ft | 136 kts | 252° |
| 2026-05-06 20:25 | 50.04630 | 8.61342 | 780 ft | 136 kts | 252° |
| 2026-05-06 20:25 | 50.04312 | 8.59974 | 592 ft | 136 kts | 252° |
| 2026-05-06 20:25 | 50.03992 | 8.58599 | 413 ft | 135 kts | 252° |
| 2026-05-06 20:26 | 50.03696 | 8.57333 | 355 ft | 100 kts | 251° |
| 2026-05-06 20:26 | 50.03528 | 8.56649 | 354 ft | 55 kts | 250° |
| 2026-05-06 20:26 | 50.03435 | 8.56145 | 357 ft | 41 kts | 267° |
| 2026-05-06 20:26 | 50.03461 | 8.55853 | 345 ft | 17 kts | 279° |
| 2026-05-06 20:27 | 50.03494 | 8.55708 | 351 ft | 9 kts | 345° |
| 2026-05-06 20:27 | 50.03531 | 8.55690 | 350 ft | 6 kts | 314° |
| 2026-05-06 20:27 | 50.03522 | 8.55559 | 345 ft | 16 kts | 279° |
| 2026-05-06 20:27 | 50.03615 | 8.55527 | 347 ft | 15 kts | 9° |
| 2026-05-06 20:28 | 50.03721 | 8.55556 | 348 ft | 16 kts | 10° |
| 2026-05-06 20:28 | 50.03818 | 8.55534 | 357 ft | 14 kts | 326° |
| 2026-05-06 20:28 | 50.03865 | 8.55501 | 352 ft | 0 kts | 337° |
| 2026-05-06 20:28 | 50.03873 | 8.55496 | 353 ft | 5 kts | 338° |
| 2026-05-06 20:29 | 50.03938 | 8.55473 | 350 ft | 14 kts | 351° |
| 2026-05-06 20:29 | 50.04039 | 8.55426 | 354 ft | 16 kts | 339° |
| 2026-05-06 20:29 | 50.04129 | 8.55466 | 351 ft | 16 kts | 67° |
| 2026-05-06 20:29 | 50.04162 | 8.55619 | 355 ft | 14 kts | 70° |
| 2026-05-06 20:30 | 50.04194 | 8.55755 | 355 ft | 13 kts | 69° |
| 2026-05-06 20:30 | 50.04304 | 8.56067 | 360 ft | 15 kts | 357° |
| 2026-05-06 20:30 | 50.04411 | 8.56037 | 363 ft | 16 kts | 6° |
| 2026-05-06 20:31 | 50.04445 | 8.56097 | 358 ft | 0 kts | 68° |
| 2026-05-06 20:31 | 50.04447 | 8.56101 | 358 ft | 3 kts | 67° |
| 2026-05-06 20:31 | 50.04464 | 8.56163 | 360 ft | 6 kts | 68° |
| 2026-05-06 20:31 | 50.04479 | 8.56229 | 359 ft | 10 kts | 70° |
| 2026-05-06 20:32 | 50.04464 | 8.56319 | 359 ft | 8 kts | 153° |
| 2026-05-06 20:32 | 50.04434 | 8.56327 | 358 ft | 2 kts | 167° |
| 2026-05-06 20:32 | 50.04430 | 8.56329 | 357 ft | 0 kts | 168° |